sensor_id;sensor_type;location;lat;lon;timestamp;P1;durP1;ratioP1;P2;durP2;ratioP2
52432;SDS011;38352;53.244;6.594;2023-04-25T00:01:39;21.60;;;5.72;;
52432;SDS011;38352;53.244;6.594;2023-04-25T00:04:05;12.50;;;4.75;;
52432;SDS011;38352;53.244;6.594;2023-04-25T00:06:32;18.70;;;4.50;;
52432;SDS011;38352;53.244;6.594;2023-04-25T00:09:01;21.17;;;4.00;;
52432;SDS011;38352;53.244;6.594;2023-04-25T00:11:28;17.90;;;4.00;;
52432;SDS011;38352;53.244;6.594;2023-04-25T00:13:56;17.70;;;4.85;;
52432;SDS011;38352;53.244;6.594;2023-04-25T00:16:22;19.92;;;4.30;;
52432;SDS011;38352;53.244;6.594;2023-04-25T00:18:48;16.60;;;5.30;;
52432;SDS011;38352;53.244;6.594;2023-04-25T00:21:18;19.95;;;5.65;;
52432;SDS011;38352;53.244;6.594;2023-04-25T00:23:45;18.23;;;4.22;;
52432;SDS011;38352;53.244;6.594;2023-04-25T00:26:11;15.02;;;3.08;;
52432;SDS011;38352;53.244;6.594;2023-04-25T00:28:37;8.98;;;3.50;;
52432;SDS011;38352;53.244;6.594;2023-04-25T00:31:03;14.93;;;3.08;;
52432;SDS011;38352;53.244;6.594;2023-04-25T00:33:29;15.85;;;3.85;;
52432;SDS011;38352;53.244;6.594;2023-04-25T00:35:55;15.23;;;3.50;;
52432;SDS011;38352;53.244;6.594;2023-04-25T00:38:21;8.75;;;3.13;;
52432;SDS011;38352;53.244;6.594;2023-04-25T00:40:47;13.88;;;3.30;;
52432;SDS011;38352;53.244;6.594;2023-04-25T00:43:13;11.90;;;2.75;;
52432;SDS011;38352;53.244;6.594;2023-04-25T00:45:40;15.27;;;3.20;;
52432;SDS011;38352;53.244;6.594;2023-04-25T00:48:06;11.98;;;3.67;;
52432;SDS011;38352;53.244;6.594;2023-04-25T00:50:35;15.82;;;3.25;;
52432;SDS011;38352;53.244;6.594;2023-04-25T00:53:01;14.35;;;3.17;;
52432;SDS011;38352;53.244;6.594;2023-04-25T00:55:28;13.57;;;2.97;;
52432;SDS011;38352;53.244;6.594;2023-04-25T00:57:54;14.23;;;3.20;;
52432;SDS011;38352;53.244;6.594;2023-04-25T01:00:20;14.27;;;3.80;;
52432;SDS011;38352;53.244;6.594;2023-04-25T01:02:46;16.45;;;3.83;;
52432;SDS011;38352;53.244;6.594;2023-04-25T01:05:13;15.00;;;3.67;;
52432;SDS011;38352;53.244;6.594;2023-04-25T01:07:39;9.23;;;3.13;;
52432;SDS011;38352;53.244;6.594;2023-04-25T01:10:06;7.90;;;2.83;;
52432;SDS011;38352;53.244;6.594;2023-04-25T01:12:32;11.00;;;3.88;;
52432;SDS011;38352;53.244;6.594;2023-04-25T01:14:58;8.43;;;2.65;;
52432;SDS011;38352;53.244;6.594;2023-04-25T01:17:24;10.98;;;2.53;;
52432;SDS011;38352;53.244;6.594;2023-04-25T01:19:52;10.30;;;2.65;;
52432;SDS011;38352;53.244;6.594;2023-04-25T01:22:18;10.80;;;2.97;;
52432;SDS011;38352;53.244;6.594;2023-04-25T01:24:44;12.25;;;2.97;;
52432;SDS011;38352;53.244;6.594;2023-04-25T01:27:11;12.38;;;2.95;;
52432;SDS011;38352;53.244;6.594;2023-04-25T01:29:37;13.88;;;2.60;;
52432;SDS011;38352;53.244;6.594;2023-04-25T01:32:04;9.90;;;2.65;;
52432;SDS011;38352;53.244;6.594;2023-04-25T01:34:30;11.18;;;3.45;;
52432;SDS011;38352;53.244;6.594;2023-04-25T01:36:56;12.10;;;2.75;;
52432;SDS011;38352;53.244;6.594;2023-04-25T01:39:24;10.88;;;2.50;;
52432;SDS011;38352;53.244;6.594;2023-04-25T01:41:50;14.23;;;2.85;;
52432;SDS011;38352;53.244;6.594;2023-04-25T01:44:17;15.48;;;2.85;;
52432;SDS011;38352;53.244;6.594;2023-04-25T01:46:43;13.73;;;2.83;;
52432;SDS011;38352;53.244;6.594;2023-04-25T01:49:09;18.52;;;3.65;;
52432;SDS011;38352;53.244;6.594;2023-04-25T01:51:35;20.60;;;2.97;;
52432;SDS011;38352;53.244;6.594;2023-04-25T01:54:01;13.45;;;3.20;;
52432;SDS011;38352;53.244;6.594;2023-04-25T01:56:36;14.77;;;2.97;;
52432;SDS011;38352;53.244;6.594;2023-04-25T01:59:02;15.68;;;3.40;;
52432;SDS011;38352;53.244;6.594;2023-04-25T02:01:29;15.02;;;3.05;;
52432;SDS011;38352;53.244;6.594;2023-04-25T02:03:55;21.27;;;4.32;;
52432;SDS011;38352;53.244;6.594;2023-04-25T02:06:21;13.63;;;3.03;;
52432;SDS011;38352;53.244;6.594;2023-04-25T02:08:47;14.68;;;4.05;;
52432;SDS011;38352;53.244;6.594;2023-04-25T02:11:13;15.02;;;3.40;;
52432;SDS011;38352;53.244;6.594;2023-04-25T02:13:39;15.77;;;3.40;;
52432;SDS011;38352;53.244;6.594;2023-04-25T02:16:05;12.00;;;3.08;;
52432;SDS011;38352;53.244;6.594;2023-04-25T02:18:31;13.20;;;3.63;;
52432;SDS011;38352;53.244;6.594;2023-04-25T02:20:59;16.40;;;3.20;;
52432;SDS011;38352;53.244;6.594;2023-04-25T02:23:26;18.73;;;3.70;;
52432;SDS011;38352;53.244;6.594;2023-04-25T02:25:52;26.10;;;4.43;;
52432;SDS011;38352;53.244;6.594;2023-04-25T02:28:20;10.93;;;3.90;;
52432;SDS011;38352;53.244;6.594;2023-04-25T02:30:46;15.77;;;3.03;;
52432;SDS011;38352;53.244;6.594;2023-04-25T02:33:12;12.10;;;3.00;;
52432;SDS011;38352;53.244;6.594;2023-04-25T02:35:38;14.23;;;3.00;;
52432;SDS011;38352;53.244;6.594;2023-04-25T02:38:04;13.05;;;3.17;;
52432;SDS011;38352;53.244;6.594;2023-04-25T02:40:30;11.20;;;2.88;;
52432;SDS011;38352;53.244;6.594;2023-04-25T02:42:56;14.07;;;3.65;;
52432;SDS011;38352;53.244;6.594;2023-04-25T02:45:22;15.00;;;3.38;;
52432;SDS011;38352;53.244;6.594;2023-04-25T02:47:48;16.48;;;3.33;;
52432;SDS011;38352;53.244;6.594;2023-04-25T02:50:14;12.00;;;2.38;;
52432;SDS011;38352;53.244;6.594;2023-04-25T02:52:41;20.98;;;2.80;;
52432;SDS011;38352;53.244;6.594;2023-04-25T02:55:07;11.50;;;2.63;;
52432;SDS011;38352;53.244;6.594;2023-04-25T02:57:33;13.52;;;2.45;;
52432;SDS011;38352;53.244;6.594;2023-04-25T02:59:59;10.82;;;2.65;;
52432;SDS011;38352;53.244;6.594;2023-04-25T03:02:25;10.73;;;2.65;;
52432;SDS011;38352;53.244;6.594;2023-04-25T03:04:51;21.45;;;2.88;;
52432;SDS011;38352;53.244;6.594;2023-04-25T03:07:17;11.65;;;2.28;;
52432;SDS011;38352;53.244;6.594;2023-04-25T03:09:43;12.23;;;2.50;;
52432;SDS011;38352;53.244;6.594;2023-04-25T03:12:09;12.05;;;2.42;;
52432;SDS011;38352;53.244;6.594;2023-04-25T03:14:36;13.68;;;2.72;;
52432;SDS011;38352;53.244;6.594;2023-04-25T03:17:02;13.02;;;2.53;;
52432;SDS011;38352;53.244;6.594;2023-04-25T03:19:28;13.82;;;3.00;;
52432;SDS011;38352;53.244;6.594;2023-04-25T03:21:54;12.45;;;2.83;;
52432;SDS011;38352;53.244;6.594;2023-04-25T03:24:21;10.98;;;2.65;;
52432;SDS011;38352;53.244;6.594;2023-04-25T03:26:47;10.25;;;3.15;;
52432;SDS011;38352;53.244;6.594;2023-04-25T03:29:13;11.15;;;3.78;;
52432;SDS011;38352;53.244;6.594;2023-04-25T03:31:39;12.43;;;2.88;;
52432;SDS011;38352;53.244;6.594;2023-04-25T03:34:05;9.70;;;2.92;;
52432;SDS011;38352;53.244;6.594;2023-04-25T03:36:31;13.40;;;3.38;;
52432;SDS011;38352;53.244;6.594;2023-04-25T03:38:57;12.23;;;2.40;;
52432;SDS011;38352;53.244;6.594;2023-04-25T03:41:23;11.40;;;2.47;;
52432;SDS011;38352;53.244;6.594;2023-04-25T03:43:50;9.13;;;2.75;;
52432;SDS011;38352;53.244;6.594;2023-04-25T03:46:18;8.77;;;2.35;;
52432;SDS011;38352;53.244;6.594;2023-04-25T03:48:45;11.15;;;2.72;;
52432;SDS011;38352;53.244;6.594;2023-04-25T03:51:11;11.40;;;2.45;;
52432;SDS011;38352;53.244;6.594;2023-04-25T03:53:37;9.18;;;2.42;;
52432;SDS011;38352;53.244;6.594;2023-04-25T03:56:03;12.07;;;2.78;;
52432;SDS011;38352;53.244;6.594;2023-04-25T03:58:29;9.15;;;2.67;;
52432;SDS011;38352;53.244;6.594;2023-04-25T04:00:55;11.82;;;2.58;;
52432;SDS011;38352;53.244;6.594;2023-04-25T04:03:21;10.25;;;2.35;;
52432;SDS011;38352;53.244;6.594;2023-04-25T04:05:47;8.32;;;2.80;;
52432;SDS011;38352;53.244;6.594;2023-04-25T04:08:13;14.13;;;3.17;;
52432;SDS011;38352;53.244;6.594;2023-04-25T04:10:39;13.90;;;3.25;;
52432;SDS011;38352;53.244;6.594;2023-04-25T04:13:05;10.63;;;2.40;;
52432;SDS011;38352;53.244;6.594;2023-04-25T04:15:32;14.35;;;3.00;;
52432;SDS011;38352;53.244;6.594;2023-04-25T04:17:58;14.25;;;3.63;;
52432;SDS011;38352;53.244;6.594;2023-04-25T04:20:28;11.88;;;2.70;;
52432;SDS011;38352;53.244;6.594;2023-04-25T04:22:55;8.23;;;2.38;;
52432;SDS011;38352;53.244;6.594;2023-04-25T04:25:21;8.60;;;3.22;;
52432;SDS011;38352;53.244;6.594;2023-04-25T04:27:47;13.73;;;2.65;;
52432;SDS011;38352;53.244;6.594;2023-04-25T04:30:13;8.10;;;2.50;;
52432;SDS011;38352;53.244;6.594;2023-04-25T04:32:40;8.82;;;2.63;;
52432;SDS011;38352;53.244;6.594;2023-04-25T04:35:06;14.13;;;2.60;;
52432;SDS011;38352;53.244;6.594;2023-04-25T04:37:34;13.38;;;2.15;;
52432;SDS011;38352;53.244;6.594;2023-04-25T04:40:00;12.88;;;3.15;;
52432;SDS011;38352;53.244;6.594;2023-04-25T04:42:30;13.45;;;3.00;;
52432;SDS011;38352;53.244;6.594;2023-04-25T04:44:57;10.75;;;2.90;;
52432;SDS011;38352;53.244;6.594;2023-04-25T04:47:23;10.65;;;2.67;;
52432;SDS011;38352;53.244;6.594;2023-04-25T04:49:50;10.23;;;2.22;;
52432;SDS011;38352;53.244;6.594;2023-04-25T04:52:16;8.65;;;2.65;;
52432;SDS011;38352;53.244;6.594;2023-04-25T04:54:42;14.57;;;2.75;;
52432;SDS011;38352;53.244;6.594;2023-04-25T04:57:08;10.73;;;2.97;;
52432;SDS011;38352;53.244;6.594;2023-04-25T04:59:35;8.82;;;3.40;;
52432;SDS011;38352;53.244;6.594;2023-04-25T05:02:01;7.72;;;2.13;;
52432;SDS011;38352;53.244;6.594;2023-04-25T05:04:27;13.00;;;2.80;;
52432;SDS011;38352;53.244;6.594;2023-04-25T05:06:53;9.95;;;2.20;;
52432;SDS011;38352;53.244;6.594;2023-04-25T05:09:19;5.82;;;1.85;;
52432;SDS011;38352;53.244;6.594;2023-04-25T05:11:45;6.57;;;1.65;;
52432;SDS011;38352;53.244;6.594;2023-04-25T05:14:12;5.70;;;1.45;;
52432;SDS011;38352;53.244;6.594;2023-04-25T05:16:38;3.80;;;1.33;;
52432;SDS011;38352;53.244;6.594;2023-04-25T05:19:04;5.65;;;1.13;;
52432;SDS011;38352;53.244;6.594;2023-04-25T05:21:30;8.25;;;1.38;;
52432;SDS011;38352;53.244;6.594;2023-04-25T05:23:56;3.00;;;1.50;;
52432;SDS011;38352;53.244;6.594;2023-04-25T05:26:22;4.38;;;1.05;;
52432;SDS011;38352;53.244;6.594;2023-04-25T05:28:49;2.50;;;1.08;;
52432;SDS011;38352;53.244;6.594;2023-04-25T05:31:16;4.32;;;1.27;;
52432;SDS011;38352;53.244;6.594;2023-04-25T05:33:42;3.97;;;1.30;;
52432;SDS011;38352;53.244;6.594;2023-04-25T05:36:08;7.70;;;1.67;;
52432;SDS011;38352;53.244;6.594;2023-04-25T05:38:34;5.60;;;1.70;;
52432;SDS011;38352;53.244;6.594;2023-04-25T05:41:03;4.68;;;1.40;;
52432;SDS011;38352;53.244;6.594;2023-04-25T05:43:29;6.63;;;1.75;;
52432;SDS011;38352;53.244;6.594;2023-04-25T05:45:55;7.28;;;1.95;;
52432;SDS011;38352;53.244;6.594;2023-04-25T05:48:21;5.88;;;1.33;;
52432;SDS011;38352;53.244;6.594;2023-04-25T05:50:47;5.57;;;1.55;;
52432;SDS011;38352;53.244;6.594;2023-04-25T05:53:14;9.90;;;1.70;;
52432;SDS011;38352;53.244;6.594;2023-04-25T05:55:40;6.75;;;1.60;;
52432;SDS011;38352;53.244;6.594;2023-04-25T05:58:06;8.13;;;1.90;;
52432;SDS011;38352;53.244;6.594;2023-04-25T06:00:32;10.90;;;2.33;;
52432;SDS011;38352;53.244;6.594;2023-04-25T06:02:58;5.80;;;2.35;;
52432;SDS011;38352;53.244;6.594;2023-04-25T06:05:25;7.03;;;1.88;;
52432;SDS011;38352;53.244;6.594;2023-04-25T06:07:51;11.40;;;2.35;;
52432;SDS011;38352;53.244;6.594;2023-04-25T06:10:17;6.10;;;1.80;;
52432;SDS011;38352;53.244;6.594;2023-04-25T06:12:43;9.82;;;1.65;;
52432;SDS011;38352;53.244;6.594;2023-04-25T06:15:10;6.35;;;1.70;;
52432;SDS011;38352;53.244;6.594;2023-04-25T06:17:36;2.53;;;1.23;;
52432;SDS011;38352;53.244;6.594;2023-04-25T06:20:02;4.97;;;1.63;;
52432;SDS011;38352;53.244;6.594;2023-04-25T06:22:29;4.55;;;1.33;;
52432;SDS011;38352;53.244;6.594;2023-04-25T06:24:55;4.95;;;1.00;;
52432;SDS011;38352;53.244;6.594;2023-04-25T06:27:24;3.80;;;1.20;;
52432;SDS011;38352;53.244;6.594;2023-04-25T06:29:50;5.15;;;1.27;;
52432;SDS011;38352;53.244;6.594;2023-04-25T06:32:16;6.20;;;1.30;;
52432;SDS011;38352;53.244;6.594;2023-04-25T06:34:43;10.85;;;1.67;;
52432;SDS011;38352;53.244;6.594;2023-04-25T06:37:09;8.90;;;1.33;;
52432;SDS011;38352;53.244;6.594;2023-04-25T06:39:35;6.82;;;1.70;;
52432;SDS011;38352;53.244;6.594;2023-04-25T06:42:01;7.40;;;1.60;;
52432;SDS011;38352;53.244;6.594;2023-04-25T06:44:27;6.97;;;1.58;;
52432;SDS011;38352;53.244;6.594;2023-04-25T06:46:54;5.75;;;1.38;;
52432;SDS011;38352;53.244;6.594;2023-04-25T06:49:20;11.32;;;2.03;;
52432;SDS011;38352;53.244;6.594;2023-04-25T06:51:47;12.52;;;2.40;;
52432;SDS011;38352;53.244;6.594;2023-04-25T06:54:13;8.88;;;2.05;;
52432;SDS011;38352;53.244;6.594;2023-04-25T06:56:39;6.90;;;1.77;;
52432;SDS011;38352;53.244;6.594;2023-04-25T06:59:06;9.40;;;2.10;;
52432;SDS011;38352;53.244;6.594;2023-04-25T07:01:33;12.10;;;2.63;;
52432;SDS011;38352;53.244;6.594;2023-04-25T07:04:00;7.38;;;1.90;;
52432;SDS011;38352;53.244;6.594;2023-04-25T07:06:26;8.23;;;1.80;;
52432;SDS011;38352;53.244;6.594;2023-04-25T07:08:53;14.30;;;2.85;;
52432;SDS011;38352;53.244;6.594;2023-04-25T07:11:19;7.50;;;1.92;;
52432;SDS011;38352;53.244;6.594;2023-04-25T07:13:46;7.32;;;1.77;;
52432;SDS011;38352;53.244;6.594;2023-04-25T07:16:12;7.82;;;1.70;;
52432;SDS011;38352;53.244;6.594;2023-04-25T07:18:38;6.55;;;1.50;;
52432;SDS011;38352;53.244;6.594;2023-04-25T07:21:04;5.63;;;1.40;;
52432;SDS011;38352;53.244;6.594;2023-04-25T07:23:30;10.80;;;1.52;;
52432;SDS011;38352;53.244;6.594;2023-04-25T07:25:56;6.50;;;1.63;;
52432;SDS011;38352;53.244;6.594;2023-04-25T07:28:22;6.07;;;1.15;;
52432;SDS011;38352;53.244;6.594;2023-04-25T07:30:48;7.05;;;1.50;;
52432;SDS011;38352;53.244;6.594;2023-04-25T07:33:14;7.63;;;1.70;;
52432;SDS011;38352;53.244;6.594;2023-04-25T07:35:40;6.22;;;1.20;;
52432;SDS011;38352;53.244;6.594;2023-04-25T07:38:06;8.88;;;1.73;;
52432;SDS011;38352;53.244;6.594;2023-04-25T07:40:33;7.00;;;1.90;;
52432;SDS011;38352;53.244;6.594;2023-04-25T07:43:00;7.20;;;1.67;;
52432;SDS011;38352;53.244;6.594;2023-04-25T07:45:26;7.18;;;1.80;;
52432;SDS011;38352;53.244;6.594;2023-04-25T07:47:52;5.68;;;1.67;;
52432;SDS011;38352;53.244;6.594;2023-04-25T07:50:18;7.18;;;1.75;;
52432;SDS011;38352;53.244;6.594;2023-04-25T07:52:44;8.65;;;1.92;;
52432;SDS011;38352;53.244;6.594;2023-04-25T07:55:10;10.07;;;2.63;;
52432;SDS011;38352;53.244;6.594;2023-04-25T07:57:37;10.48;;;1.52;;
52432;SDS011;38352;53.244;6.594;2023-04-25T08:00:04;9.63;;;1.73;;
52432;SDS011;38352;53.244;6.594;2023-04-25T08:02:34;10.05;;;1.73;;
52432;SDS011;38352;53.244;6.594;2023-04-25T08:05:01;3.63;;;1.08;;
52432;SDS011;38352;53.244;6.594;2023-04-25T08:07:27;4.93;;;1.30;;
52432;SDS011;38352;53.244;6.594;2023-04-25T08:09:54;5.22;;;1.15;;
52432;SDS011;38352;53.244;6.594;2023-04-25T08:12:20;2.97;;;1.13;;
52432;SDS011;38352;53.244;6.594;2023-04-25T08:14:46;4.72;;;1.20;;
52432;SDS011;38352;53.244;6.594;2023-04-25T08:17:12;3.70;;;1.08;;
52432;SDS011;38352;53.244;6.594;2023-04-25T08:19:39;6.28;;;1.25;;
52432;SDS011;38352;53.244;6.594;2023-04-25T08:22:05;3.15;;;1.20;;
52432;SDS011;38352;53.244;6.594;2023-04-25T08:24:31;4.45;;;0.93;;
52432;SDS011;38352;53.244;6.594;2023-04-25T08:26:57;2.92;;;0.93;;
52432;SDS011;38352;53.244;6.594;2023-04-25T08:29:24;6.85;;;1.10;;
52432;SDS011;38352;53.244;6.594;2023-04-25T08:31:50;2.40;;;0.93;;
52432;SDS011;38352;53.244;6.594;2023-04-25T08:34:18;5.70;;;1.10;;
52432;SDS011;38352;53.244;6.594;2023-04-25T08:36:45;4.65;;;0.95;;
52432;SDS011;38352;53.244;6.594;2023-04-25T08:39:11;4.70;;;1.10;;
52432;SDS011;38352;53.244;6.594;2023-04-25T08:41:38;3.80;;;1.00;;
52432;SDS011;38352;53.244;6.594;2023-04-25T08:44:05;3.65;;;1.20;;
52432;SDS011;38352;53.244;6.594;2023-04-25T08:46:32;3.60;;;1.40;;
52432;SDS011;38352;53.244;6.594;2023-04-25T08:49:00;5.65;;;0.98;;
52432;SDS011;38352;53.244;6.594;2023-04-25T08:51:27;2.92;;;1.20;;
52432;SDS011;38352;53.244;6.594;2023-04-25T08:53:56;6.35;;;1.73;;
52432;SDS011;38352;53.244;6.594;2023-04-25T08:56:26;2.63;;;1.00;;
52432;SDS011;38352;53.244;6.594;2023-04-25T08:58:52;7.38;;;1.50;;
52432;SDS011;38352;53.244;6.594;2023-04-25T09:01:18;7.60;;;1.63;;
52432;SDS011;38352;53.244;6.594;2023-04-25T09:03:45;6.53;;;1.63;;
52432;SDS011;38352;53.244;6.594;2023-04-25T09:06:12;5.93;;;1.55;;
52432;SDS011;38352;53.244;6.594;2023-04-25T09:08:38;5.82;;;1.85;;
52432;SDS011;38352;53.244;6.594;2023-04-25T09:11:07;9.10;;;1.90;;
52432;SDS011;38352;53.244;6.594;2023-04-25T09:13:33;7.65;;;1.80;;
52432;SDS011;38352;53.244;6.594;2023-04-25T09:15:59;8.52;;;2.08;;
52432;SDS011;38352;53.244;6.594;2023-04-25T09:20:52;6.88;;;1.20;;
52432;SDS011;38352;53.244;6.594;2023-04-25T09:23:19;4.50;;;1.50;;
52432;SDS011;38352;53.244;6.594;2023-04-25T09:25:50;7.70;;;1.40;;
52432;SDS011;38352;53.244;6.594;2023-04-25T09:28:16;7.50;;;1.40;;
52432;SDS011;38352;53.244;6.594;2023-04-25T09:30:48;5.03;;;1.50;;
52432;SDS011;38352;53.244;6.594;2023-04-25T09:33:14;7.07;;;1.67;;
52432;SDS011;38352;53.244;6.594;2023-04-25T09:35:42;6.35;;;1.30;;
52432;SDS011;38352;53.244;6.594;2023-04-25T09:38:12;6.90;;;1.92;;
52432;SDS011;38352;53.244;6.594;2023-04-25T09:40:47;6.22;;;1.50;;
52432;SDS011;38352;53.244;6.594;2023-04-25T09:43:20;10.13;;;1.85;;
52432;SDS011;38352;53.244;6.594;2023-04-25T09:45:47;7.82;;;1.60;;
52432;SDS011;38352;53.244;6.594;2023-04-25T09:48:17;12.05;;;1.73;;
52432;SDS011;38352;53.244;6.594;2023-04-25T09:50:45;6.68;;;1.80;;
52432;SDS011;38352;53.244;6.594;2023-04-25T09:53:11;7.20;;;2.17;;
52432;SDS011;38352;53.244;6.594;2023-04-25T09:55:37;6.18;;;2.00;;
52432;SDS011;38352;53.244;6.594;2023-04-25T09:58:04;5.00;;;1.88;;
52432;SDS011;38352;53.244;6.594;2023-04-25T10:00:34;9.40;;;1.80;;
52432;SDS011;38352;53.244;6.594;2023-04-25T10:03:01;5.78;;;1.42;;
52432;SDS011;38352;53.244;6.594;2023-04-25T10:05:32;7.10;;;1.77;;
52432;SDS011;38352;53.244;6.594;2023-04-25T10:07:59;12.77;;;2.33;;
52432;SDS011;38352;53.244;6.594;2023-04-25T10:10:28;8.52;;;1.63;;
52432;SDS011;38352;53.244;6.594;2023-04-25T10:12:58;6.55;;;1.42;;
52432;SDS011;38352;53.244;6.594;2023-04-25T10:15:24;7.28;;;1.50;;
52432;SDS011;38352;53.244;6.594;2023-04-25T10:17:50;6.40;;;1.63;;
52432;SDS011;38352;53.244;6.594;2023-04-25T10:20:17;4.05;;;1.30;;
52432;SDS011;38352;53.244;6.594;2023-04-25T10:22:44;8.18;;;1.80;;
52432;SDS011;38352;53.244;6.594;2023-04-25T10:25:10;7.68;;;2.65;;
52432;SDS011;38352;53.244;6.594;2023-04-25T10:27:36;6.85;;;1.85;;
52432;SDS011;38352;53.244;6.594;2023-04-25T10:32:36;10.77;;;2.65;;
52432;SDS011;38352;53.244;6.594;2023-04-25T10:35:12;13.45;;;2.05;;
52432;SDS011;38352;53.244;6.594;2023-04-25T10:40:24;9.82;;;1.80;;
52432;SDS011;38352;53.244;6.594;2023-04-25T10:42:52;7.78;;;1.70;;
52432;SDS011;38352;53.244;6.594;2023-04-25T10:45:19;5.53;;;1.70;;
52432;SDS011;38352;53.244;6.594;2023-04-25T10:47:45;6.03;;;1.50;;
52432;SDS011;38352;53.244;6.594;2023-04-25T10:50:12;4.20;;;1.40;;
52432;SDS011;38352;53.244;6.594;2023-04-25T10:52:41;6.93;;;1.50;;
52432;SDS011;38352;53.244;6.594;2023-04-25T10:55:07;6.65;;;1.38;;
52432;SDS011;38352;53.244;6.594;2023-04-25T11:02:31;7.68;;;2.15;;
52432;SDS011;38352;53.244;6.594;2023-04-25T11:04:57;6.95;;;2.00;;
52432;SDS011;38352;53.244;6.594;2023-04-25T11:10:31;6.32;;;1.73;;
52432;SDS011;38352;53.244;6.594;2023-04-25T11:13:00;7.53;;;1.30;;
52432;SDS011;38352;53.244;6.594;2023-04-25T11:15:26;7.38;;;1.70;;
52432;SDS011;38352;53.244;6.594;2023-04-25T11:17:52;5.53;;;1.70;;
52432;SDS011;38352;53.244;6.594;2023-04-25T11:20:19;7.40;;;2.17;;
52432;SDS011;38352;53.244;6.594;2023-04-25T11:22:46;6.75;;;1.38;;
52432;SDS011;38352;53.244;6.594;2023-04-25T11:25:13;5.40;;;1.50;;
52432;SDS011;38352;53.244;6.594;2023-04-25T11:27:51;5.90;;;1.48;;
52432;SDS011;38352;53.244;6.594;2023-04-25T11:30:18;5.63;;;1.33;;
52432;SDS011;38352;53.244;6.594;2023-04-25T11:32:44;5.07;;;0.85;;
52432;SDS011;38352;53.244;6.594;2023-04-25T11:35:10;6.63;;;1.50;;
52432;SDS011;38352;53.244;6.594;2023-04-25T11:37:38;6.85;;;1.60;;
52432;SDS011;38352;53.244;6.594;2023-04-25T11:40:04;8.63;;;2.25;;
52432;SDS011;38352;53.244;6.594;2023-04-25T11:42:31;4.25;;;1.60;;
52432;SDS011;38352;53.244;6.594;2023-04-25T11:44:58;5.07;;;1.75;;
52432;SDS011;38352;53.244;6.594;2023-04-25T11:47:29;9.43;;;1.88;;
52432;SDS011;38352;53.244;6.594;2023-04-25T11:49:55;7.60;;;2.00;;
52432;SDS011;38352;53.244;6.594;2023-04-25T11:52:21;5.57;;;1.48;;
52432;SDS011;38352;53.244;6.594;2023-04-25T11:54:47;9.70;;;1.67;;
52432;SDS011;38352;53.244;6.594;2023-04-25T11:57:13;8.82;;;1.40;;
52432;SDS011;38352;53.244;6.594;2023-04-25T11:59:40;5.90;;;1.50;;
52432;SDS011;38352;53.244;6.594;2023-04-25T12:02:06;6.30;;;2.03;;
52432;SDS011;38352;53.244;6.594;2023-04-25T12:04:32;7.43;;;2.25;;
52432;SDS011;38352;53.244;6.594;2023-04-25T12:06:59;6.78;;;1.75;;
52432;SDS011;38352;53.244;6.594;2023-04-25T12:09:30;4.20;;;1.15;;
52432;SDS011;38352;53.244;6.594;2023-04-25T12:11:57;5.85;;;1.50;;
52432;SDS011;38352;53.244;6.594;2023-04-25T12:14:27;6.72;;;1.83;;
52432;SDS011;38352;53.244;6.594;2023-04-25T12:16:55;6.00;;;1.52;;
52432;SDS011;38352;53.244;6.594;2023-04-25T12:19:22;5.05;;;1.35;;
52432;SDS011;38352;53.244;6.594;2023-04-25T12:21:49;5.43;;;1.27;;
52432;SDS011;38352;53.244;6.594;2023-04-25T12:24:16;7.90;;;1.88;;
52432;SDS011;38352;53.244;6.594;2023-04-25T12:27:02;9.35;;;1.50;;
52432;SDS011;38352;53.244;6.594;2023-04-25T12:29:29;5.25;;;1.77;;
52432;SDS011;38352;53.244;6.594;2023-04-25T12:31:56;6.32;;;1.80;;
52432;SDS011;38352;53.244;6.594;2023-04-25T12:34:22;8.05;;;2.88;;
52432;SDS011;38352;53.244;6.594;2023-04-25T12:36:49;8.27;;;1.73;;
52432;SDS011;38352;53.244;6.594;2023-04-25T12:39:22;6.30;;;1.85;;
52432;SDS011;38352;53.244;6.594;2023-04-25T12:41:52;4.27;;;1.20;;
52432;SDS011;38352;53.244;6.594;2023-04-25T12:44:21;4.55;;;1.52;;
52432;SDS011;38352;53.244;6.594;2023-04-25T12:46:47;4.00;;;1.25;;
52432;SDS011;38352;53.244;6.594;2023-04-25T12:49:13;7.22;;;1.50;;
52432;SDS011;38352;53.244;6.594;2023-04-25T12:51:40;8.77;;;1.40;;
52432;SDS011;38352;53.244;6.594;2023-04-25T12:54:06;9.32;;;1.70;;
52432;SDS011;38352;53.244;6.594;2023-04-25T12:56:33;7.13;;;1.50;;
52432;SDS011;38352;53.244;6.594;2023-04-25T12:59:00;7.38;;;1.75;;
52432;SDS011;38352;53.244;6.594;2023-04-25T13:01:27;8.13;;;1.55;;
52432;SDS011;38352;53.244;6.594;2023-04-25T13:03:54;8.18;;;1.52;;
52432;SDS011;38352;53.244;6.594;2023-04-25T13:06:21;8.60;;;1.40;;
52432;SDS011;38352;53.244;6.594;2023-04-25T13:08:47;6.70;;;1.90;;
52432;SDS011;38352;53.244;6.594;2023-04-25T13:11:13;6.55;;;1.70;;
52432;SDS011;38352;53.244;6.594;2023-04-25T13:13:43;3.47;;;1.00;;
52432;SDS011;38352;53.244;6.594;2023-04-25T13:16:09;5.63;;;1.50;;
52432;SDS011;38352;53.244;6.594;2023-04-25T13:18:36;6.90;;;1.63;;
52432;SDS011;38352;53.244;6.594;2023-04-25T13:21:02;5.40;;;1.67;;
52432;SDS011;38352;53.244;6.594;2023-04-25T13:23:29;7.40;;;1.95;;
52432;SDS011;38352;53.244;6.594;2023-04-25T13:25:55;10.13;;;1.95;;
52432;SDS011;38352;53.244;6.594;2023-04-25T13:28:26;8.00;;;2.03;;
52432;SDS011;38352;53.244;6.594;2023-04-25T13:30:52;9.45;;;2.53;;
52432;SDS011;38352;53.244;6.594;2023-04-25T13:33:19;9.27;;;2.58;;
52432;SDS011;38352;53.244;6.594;2023-04-25T13:35:46;7.63;;;1.60;;
52432;SDS011;38352;53.244;6.594;2023-04-25T13:38:18;6.78;;;1.85;;
52432;SDS011;38352;53.244;6.594;2023-04-25T13:40:44;5.25;;;1.50;;
52432;SDS011;38352;53.244;6.594;2023-04-25T13:43:10;7.38;;;1.42;;
52432;SDS011;38352;53.244;6.594;2023-04-25T13:45:36;7.13;;;1.48;;
52432;SDS011;38352;53.244;6.594;2023-04-25T13:48:02;6.57;;;1.35;;
52432;SDS011;38352;53.244;6.594;2023-04-25T13:50:28;5.75;;;1.33;;
52432;SDS011;38352;53.244;6.594;2023-04-25T13:52:55;8.02;;;1.67;;
52432;SDS011;38352;53.244;6.594;2023-04-25T13:55:21;5.45;;;1.25;;
52432;SDS011;38352;53.244;6.594;2023-04-25T13:57:47;6.53;;;1.50;;
52432;SDS011;38352;53.244;6.594;2023-04-25T14:00:13;8.75;;;1.58;;
52432;SDS011;38352;53.244;6.594;2023-04-25T14:02:39;6.20;;;1.60;;
52432;SDS011;38352;53.244;6.594;2023-04-25T14:05:06;7.50;;;1.83;;
52432;SDS011;38352;53.244;6.594;2023-04-25T14:07:36;7.53;;;1.75;;
52432;SDS011;38352;53.244;6.594;2023-04-25T14:10:02;6.25;;;1.80;;
52432;SDS011;38352;53.244;6.594;2023-04-25T14:12:29;9.57;;;1.92;;
52432;SDS011;38352;53.244;6.594;2023-04-25T14:14:56;5.82;;;1.40;;
52432;SDS011;38352;53.244;6.594;2023-04-25T14:17:22;8.98;;;2.00;;
52432;SDS011;38352;53.244;6.594;2023-04-25T14:19:49;5.13;;;1.30;;
52432;SDS011;38352;53.244;6.594;2023-04-25T14:22:15;4.50;;;1.20;;
52432;SDS011;38352;53.244;6.594;2023-04-25T14:24:41;5.63;;;1.67;;
52432;SDS011;38352;53.244;6.594;2023-04-25T14:27:07;2.85;;;1.13;;
52432;SDS011;38352;53.244;6.594;2023-04-25T14:29:33;6.90;;;1.23;;
52432;SDS011;38352;53.244;6.594;2023-04-25T14:32:00;5.63;;;1.52;;
52432;SDS011;38352;53.244;6.594;2023-04-25T14:34:27;7.45;;;1.58;;
52432;SDS011;38352;53.244;6.594;2023-04-25T14:36:53;10.02;;;1.95;;
52432;SDS011;38352;53.244;6.594;2023-04-25T14:39:19;7.65;;;1.73;;
52432;SDS011;38352;53.244;6.594;2023-04-25T14:41:48;8.27;;;3.75;;
52432;SDS011;38352;53.244;6.594;2023-04-25T14:44:14;9.52;;;2.30;;
52432;SDS011;38352;53.244;6.594;2023-04-25T14:46:40;5.55;;;1.27;;
52432;SDS011;38352;53.244;6.594;2023-04-25T14:49:07;5.85;;;1.40;;
52432;SDS011;38352;53.244;6.594;2023-04-25T14:51:34;4.47;;;1.45;;
52432;SDS011;38352;53.244;6.594;2023-04-25T14:54:00;3.17;;;1.30;;
52432;SDS011;38352;53.244;6.594;2023-04-25T14:56:26;6.43;;;1.50;;